createdAt,value
2019-03-27T00:02:45.730Z,17.60
2019-03-27T00:05:35.753Z,25.43
2019-03-27T00:08:26.250Z,22.37
2019-03-27T00:11:16.442Z,21.93
2019-03-27T00:14:06.107Z,23.90
2019-03-27T00:16:55.743Z,28.60
2019-03-27T00:19:45.551Z,20.83
2019-03-27T00:22:35.194Z,27.03
2019-03-27T00:25:24.817Z,28.13
2019-03-27T00:27:55.413Z,25.17
2019-03-27T00:30:44.439Z,31.87
2019-03-27T00:33:33.904Z,20.63
2019-03-27T00:36:23.565Z,23.27
2019-03-27T00:39:12.733Z,25.03
2019-03-27T00:42:02.253Z,27.90
2019-03-27T00:44:58.488Z,29.17
2019-03-27T00:47:48.086Z,20.93
2019-03-27T00:50:37.632Z,25.67
2019-03-27T00:53:26.954Z,23.90
2019-03-27T00:56:16.470Z,31.33
2019-03-27T00:59:06.418Z,20.40
2019-03-27T01:01:55.998Z,24.23
2019-03-27T01:04:45.221Z,24.23
2019-03-27T01:07:35.255Z,21.80
2019-03-27T01:10:24.708Z,26.43
2019-03-27T01:13:13.829Z,23.60
2019-03-27T01:16:03.200Z,26.03
2019-03-27T01:18:53.244Z,27.10
2019-03-27T01:21:24.082Z,24.50
2019-03-27T01:24:13.625Z,23.73
2019-03-27T01:27:03.453Z,24.17
2019-03-27T01:29:52.860Z,21.73
2019-03-27T01:32:23.470Z,22.33
2019-03-27T01:35:13.111Z,24.13
2019-03-27T01:38:02.056Z,36.83
2019-03-27T01:40:51.638Z,26.57
2019-03-27T01:43:41.073Z,31.80
2019-03-27T01:46:30.588Z,28.40
2019-03-27T01:49:19.845Z,25.43
2019-03-27T01:52:09.049Z,30.03
2019-03-27T01:54:58.502Z,31.13
2019-03-27T01:57:32.956Z,34.10
2019-03-27T02:00:22.935Z,32.23
2019-03-27T02:03:12.721Z,33.83
2019-03-27T02:06:01.906Z,27.80
2019-03-27T02:08:51.724Z,38.67
2019-03-27T02:11:40.630Z,29.00
2019-03-27T02:14:29.816Z,29.63
2019-03-27T02:17:19.555Z,38.87
2019-03-27T02:20:09.691Z,34.67
2019-03-27T02:22:59.016Z,36.90
2019-03-27T02:25:48.572Z,27.70
2019-03-27T02:28:38.542Z,34.87
2019-03-27T02:31:28.540Z,30.77
2019-03-27T02:34:18.483Z,34.83
2019-03-27T02:37:08.650Z,36.10
2019-03-27T02:39:58.350Z,35.17
2019-03-27T02:42:48.062Z,37.10
2019-03-27T02:45:18.895Z,29.63
2019-03-27T02:48:08.048Z,33.40
2019-03-27T02:50:57.252Z,39.50
2019-03-27T02:53:46.807Z,34.47
2019-03-27T02:56:17.766Z,38.13
2019-03-27T02:59:06.955Z,33.10
2019-03-27T03:01:56.222Z,36.83
2019-03-27T03:04:45.080Z,37.47
2019-03-27T03:07:18.575Z,30.73
2019-03-27T03:10:08.822Z,44.17
2019-03-27T03:12:58.261Z,41.13
2019-03-27T03:15:48.002Z,37.10
2019-03-27T03:18:37.204Z,40.17
2019-03-27T03:21:27.088Z,35.40
2019-03-27T03:24:16.940Z,37.70
2019-03-27T03:27:06.900Z,39.53
2019-03-27T03:29:56.416Z,41.97
2019-03-27T03:32:45.458Z,35.17
2019-03-27T03:35:35.040Z,37.73
2019-03-27T03:38:24.717Z,45.60
2019-03-27T03:41:14.492Z,44.30
2019-03-27T03:44:04.131Z,38.67
2019-03-27T03:46:59.884Z,43.23
2019-03-27T03:49:44.904Z,43.30
2019-03-27T03:52:34.805Z,42.93
2019-03-27T03:55:25.097Z,41.50
2019-03-27T03:58:16.298Z,45.70
2019-03-27T04:01:06.717Z,40.37
2019-03-27T04:03:57.663Z,43.27
2019-03-27T04:06:47.644Z,45.33
2019-03-27T04:09:37.295Z,38.77
2019-03-27T04:12:08.148Z,46.30
2019-03-27T04:14:57.823Z,44.17
2019-03-27T04:17:47.118Z,43.07
2019-03-27T04:20:36.902Z,44.23
2019-03-27T04:23:26.808Z,43.30
2019-03-27T04:26:16.360Z,45.87
2019-03-27T04:29:06.406Z,46.40
2019-03-27T04:31:55.736Z,47.43
2019-03-27T04:34:47.132Z,44.70
2019-03-27T04:37:35.672Z,41.47
2019-03-27T04:40:26.047Z,49.03
2019-03-27T04:43:15.519Z,56.00
2019-03-27T04:46:04.296Z,57.63
2019-03-27T04:48:53.565Z,46.67
2019-03-27T04:51:43.405Z,42.07
2019-03-27T04:54:32.735Z,46.47
2019-03-27T04:57:22.114Z,46.33
2019-03-27T05:00:10.729Z,43.77
2019-03-27T05:02:59.250Z,43.00
2019-03-27T05:05:48.026Z,53.17
2019-03-27T05:08:35.934Z,51.03
2019-03-27T05:11:24.479Z,50.40
2019-03-27T05:14:12.801Z,51.60
2019-03-27T05:17:01.081Z,45.17
2019-03-27T05:19:50.303Z,43.53
2019-03-27T05:22:38.504Z,50.83
2019-03-27T05:25:26.967Z,47.60
2019-03-27T05:28:15.288Z,47.87
2019-03-27T05:31:03.906Z,58.50
2019-03-27T05:33:52.226Z,49.53
2019-03-27T05:36:40.192Z,48.73
2019-03-27T05:39:10.124Z,44.87
2019-03-27T05:41:39.656Z,52.13
2019-03-27T05:44:09.146Z,57.17
2019-03-27T05:46:38.908Z,57.80
2019-03-27T05:49:08.609Z,53.50
2019-03-27T05:51:38.473Z,45.70
2019-03-27T05:54:08.362Z,53.50
2019-03-27T05:56:38.306Z,50.10
2019-03-27T05:59:07.986Z,48.87
2019-03-27T06:01:38.840Z,56.83
2019-03-27T06:04:09.519Z,52.90
2019-03-27T06:06:59.265Z,54.20
2019-03-27T06:09:29.740Z,53.57
2019-03-27T06:12:00.619Z,59.90
2019-03-27T06:14:31.255Z,40.33
2019-03-27T06:17:01.912Z,45.00
2019-03-27T06:19:51.713Z,45.67
2019-03-27T06:22:40.942Z,48.50
2019-03-27T06:25:30.658Z,55.57
2019-03-27T06:28:19.832Z,47.87
2019-03-27T06:31:09.230Z,46.07
2019-03-27T06:33:40.051Z,44.60
2019-03-27T06:36:10.928Z,56.53
2019-03-27T06:38:41.594Z,52.13
2019-03-27T06:41:12.453Z,43.33
2019-03-27T06:43:43.364Z,48.70
2019-03-27T06:46:32.148Z,44.73
2019-03-27T06:49:21.610Z,54.20
2019-03-27T06:52:11.274Z,58.70
2019-03-27T06:55:00.943Z,47.30
2019-03-27T06:57:50.747Z,56.73
2019-03-27T07:00:39.854Z,51.43
2019-03-27T07:03:29.850Z,56.40
2019-03-27T07:06:19.534Z,50.73
2019-03-27T07:09:10.128Z,56.80
2019-03-27T07:11:59.900Z,58.60
2019-03-27T07:14:48.982Z,53.83
2019-03-27T07:17:38.294Z,54.50
2019-03-27T07:20:27.461Z,48.13
2019-03-27T07:22:59.077Z,44.87
2019-03-27T07:25:29.866Z,51.53
2019-03-27T07:28:00.564Z,55.73
2019-03-27T07:30:31.121Z,58.17
2019-03-27T07:33:01.849Z,53.20
2019-03-27T07:35:32.458Z,54.40
2019-03-27T07:38:05.237Z,51.20
2019-03-27T07:40:37.195Z,54.67
2019-03-27T07:43:08.362Z,51.33
2019-03-27T07:45:39.088Z,51.60
2019-03-27T07:48:10.239Z,51.83
2019-03-27T07:50:40.897Z,53.60
2019-03-27T07:53:12.578Z,60.73
2019-03-27T07:55:44.541Z,47.63
2019-03-27T07:58:16.486Z,55.20
2019-03-27T08:00:52.208Z,56.63
2019-03-27T08:03:28.077Z,57.00
2019-03-27T08:06:02.101Z,57.00
2019-03-27T08:08:36.161Z,56.77
2019-03-27T08:11:11.896Z,55.90
2019-03-27T08:13:45.681Z,60.30
2019-03-27T08:16:19.999Z,52.27
2019-03-27T08:19:07.403Z,53.80
2019-03-27T08:21:31.341Z,56.90
2019-03-27T08:24:02.676Z,55.80
2019-03-27T08:26:33.505Z,42.40
2019-03-27T08:29:04.488Z,48.20
2019-03-27T08:31:35.509Z,52.30
2019-03-27T08:34:12.895Z,51.87
2019-03-27T08:36:44.188Z,41.20
2019-03-27T08:45:15.414Z,44.80
2019-03-27T08:48:04.819Z,46.60
2019-03-27T08:50:54.754Z,30.50
2019-03-27T08:53:44.868Z,29.63
2019-03-27T08:56:34.393Z,26.73
2019-03-27T08:59:27.002Z,30.57
2019-03-27T09:02:18.172Z,39.77
2019-03-27T09:05:09.130Z,33.00
2019-03-27T09:21:54.444Z,35.40
2019-03-27T09:24:51.608Z,29.23
2019-03-27T09:27:42.277Z,30.70
2019-03-27T09:30:34.895Z,33.03
2019-03-27T09:33:24.977Z,25.60
2019-03-27T09:36:15.944Z,31.37
2019-03-27T09:39:07.626Z,28.27
2019-03-27T09:41:57.014Z,20.23
2019-03-27T09:44:47.586Z,25.37
2019-03-27T09:47:37.235Z,25.63
2019-03-27T09:50:29.949Z,22.90
2019-03-27T09:53:19.418Z,20.40
2019-03-27T09:56:18.927Z,23.63
2019-03-27T09:59:00.807Z,22.77
2019-03-27T10:01:50.295Z,21.63
2019-03-27T10:04:40.089Z,18.20
2019-03-27T10:07:31.047Z,18.27
2019-03-27T10:10:21.192Z,18.03
2019-03-27T10:13:11.041Z,16.00
2019-03-27T10:16:01.348Z,14.10
2019-03-27T10:18:51.200Z,17.73
2019-03-27T10:21:41.273Z,18.27
2019-03-27T10:24:31.533Z,16.60
2019-03-27T10:27:20.929Z,14.73
2019-03-27T10:30:10.961Z,16.27
2019-03-27T10:32:41.725Z,18.80
2019-03-27T10:35:31.734Z,14.63
2019-03-27T10:38:21.135Z,15.90
2019-03-27T10:41:10.422Z,13.13
2019-03-27T10:43:59.861Z,14.10
2019-03-27T10:46:49.535Z,13.90
2019-03-27T10:49:59.346Z,12.10
2019-03-27T10:52:48.872Z,8.93
2019-03-27T10:55:38.704Z,8.90
2019-03-27T10:58:28.039Z,11.13
2019-03-27T11:01:18.355Z,13.73
2019-03-27T11:04:09.320Z,10.43
2019-03-27T11:06:59.048Z,12.90
2019-03-27T11:09:48.860Z,16.07
2019-03-27T11:12:38.576Z,14.43
2019-03-27T11:15:28.444Z,15.93
2019-03-27T11:18:18.674Z,14.10
2019-03-27T11:21:08.160Z,14.00
2019-03-27T11:23:57.691Z,16.30
2019-03-27T11:26:47.060Z,11.97
2019-03-27T11:29:36.367Z,14.03
2019-03-27T11:32:07.059Z,10.47
2019-03-27T11:34:57.013Z,19.57
2019-03-27T11:37:46.485Z,13.00
2019-03-27T11:40:36.019Z,12.93
2019-03-27T11:43:25.913Z,13.70
2019-03-27T11:46:15.642Z,11.20
2019-03-27T11:49:04.647Z,15.53
2019-03-27T11:51:54.509Z,14.17
2019-03-27T11:54:43.751Z,11.07
2019-03-27T11:57:33.588Z,12.30
2019-03-27T12:00:23.737Z,9.20
2019-03-27T12:03:14.108Z,12.83
2019-03-27T12:06:02.867Z,11.13
2019-03-27T12:08:51.280Z,10.43
2019-03-27T12:11:39.825Z,11.10
2019-03-27T12:14:28.772Z,11.43
2019-03-27T12:17:17.803Z,10.90
2019-03-27T12:20:07.669Z,11.80
2019-03-27T12:22:57.901Z,10.57
2019-03-27T12:25:46.597Z,10.67
2019-03-27T12:28:34.930Z,15.87
2019-03-27T12:31:24.165Z,15.10
2019-03-27T12:34:13.340Z,14.47
2019-03-27T12:37:02.035Z,10.13
2019-03-27T12:39:50.586Z,13.43
2019-03-27T12:42:38.860Z,13.07
2019-03-27T12:45:27.528Z,10.40
2019-03-27T12:48:18.348Z,15.17
2019-03-27T12:51:12.931Z,13.53
2019-03-27T12:53:59.232Z,13.13
2019-03-27T12:56:47.680Z,11.37
2019-03-27T12:59:36.045Z,10.90
2019-03-27T13:02:24.751Z,14.30
2019-03-27T13:05:13.486Z,14.40
2019-03-27T13:08:02.084Z,12.10
2019-03-27T13:10:50.712Z,10.67
2019-03-27T13:13:38.995Z,10.17
2019-03-27T13:16:27.633Z,13.97
2019-03-27T13:19:16.305Z,9.87
2019-03-27T13:22:05.125Z,10.37
2019-03-27T13:24:52.878Z,10.63
2019-03-27T13:27:41.026Z,9.13
2019-03-27T13:30:29.261Z,8.27
2019-03-27T13:33:18.466Z,9.37
2019-03-27T13:36:06.964Z,10.77
2019-03-27T13:38:55.419Z,11.07
2019-03-27T13:41:44.233Z,9.53
2019-03-27T13:44:37.411Z,8.90
2019-03-27T13:47:22.500Z,12.47
2019-03-27T13:50:13.137Z,12.97
2019-03-27T13:53:02.005Z,9.33
2019-03-27T13:55:50.891Z,15.80
2019-03-27T13:58:39.554Z,11.20
2019-03-27T14:01:27.978Z,13.10
2019-03-27T14:04:16.352Z,13.50
2019-03-27T14:07:04.566Z,18.70
2019-03-27T14:09:53.157Z,17.47
2019-03-27T14:12:41.376Z,14.03
2019-03-27T14:15:30.019Z,10.73
2019-03-27T14:18:18.419Z,8.97
2019-03-27T14:21:10.278Z,11.80
2019-03-27T14:24:00.203Z,10.93
2019-03-27T14:26:49.117Z,12.50
2019-03-27T14:29:38.042Z,9.83
2019-03-27T14:32:26.884Z,7.37
2019-03-27T14:35:11.597Z,13.23
2019-03-27T14:37:41.516Z,11.67
2019-03-27T14:40:11.273Z,12.50
2019-03-27T14:42:59.857Z,7.43
2019-03-27T14:45:47.980Z,10.50
2019-03-27T14:48:36.653Z,10.20
2019-03-27T14:51:25.042Z,8.07
2019-03-27T14:54:13.184Z,9.90
2019-03-27T14:57:01.322Z,9.50
2019-03-27T14:59:31.409Z,9.90
2019-03-27T15:02:01.207Z,9.83
2019-03-27T15:04:30.928Z,9.53
2019-03-27T15:07:00.681Z,9.17
2019-03-27T15:09:30.537Z,10.90
2019-03-27T15:12:00.572Z,9.10
2019-03-27T15:14:31.127Z,10.90
2019-03-27T15:17:00.763Z,13.27
2019-03-27T15:19:30.733Z,10.20
2019-03-27T15:22:00.724Z,18.90
2019-03-27T15:24:30.511Z,9.67
2019-03-27T15:27:00.367Z,11.63
2019-03-27T15:29:48.566Z,9.90
2019-03-27T15:32:37.397Z,11.03
2019-03-27T15:35:25.856Z,12.80
2019-03-27T15:38:14.265Z,12.70
2019-03-27T15:40:45.112Z,13.00
2019-03-27T15:43:14.724Z,9.13
2019-03-27T15:46:03.367Z,13.60
2019-03-27T15:48:51.251Z,11.27
2019-03-27T15:51:39.757Z,8.40
2019-03-27T15:54:28.508Z,8.73
2019-03-27T15:57:17.170Z,13.40
2019-03-27T16:00:05.930Z,13.50
2019-03-27T16:02:54.831Z,10.13
2019-03-27T16:05:43.252Z,13.23
2019-03-27T16:08:15.978Z,14.57
2019-03-27T16:11:05.622Z,9.03
2019-03-27T16:13:53.943Z,12.03
2019-03-27T16:16:57.680Z,11.70
2019-03-27T16:19:32.420Z,9.90
2019-03-27T16:22:21.267Z,10.97
2019-03-27T16:25:10.198Z,12.27
2019-03-27T16:27:59.087Z,9.60
2019-03-27T16:30:47.517Z,11.80
2019-03-27T16:33:36.253Z,13.47
2019-03-27T16:36:24.570Z,12.40
2019-03-27T16:39:13.398Z,8.43
2019-03-27T16:42:01.945Z,10.27
2019-03-27T16:44:50.340Z,10.80
2019-03-27T16:47:39.137Z,11.13
2019-03-27T16:50:27.455Z,9.57
2019-03-27T16:53:16.258Z,12.53
2019-03-27T16:56:04.859Z,11.47
2019-03-27T16:58:53.453Z,12.90
2019-03-27T17:01:42.504Z,9.50
2019-03-27T17:04:30.999Z,9.03
2019-03-27T17:07:20.378Z,9.97
2019-03-27T17:10:09.061Z,9.97
2019-03-27T17:12:57.690Z,12.57
2019-03-27T17:15:47.838Z,13.67
2019-03-27T17:18:36.616Z,11.50
2019-03-27T17:21:25.880Z,12.20
2019-03-27T17:24:14.588Z,13.27
2019-03-27T17:27:02.800Z,16.80
2019-03-27T17:29:50.952Z,11.50
2019-03-27T17:32:38.982Z,12.23
2019-03-27T17:35:27.904Z,14.63
2019-03-27T17:38:16.391Z,10.73
2019-03-27T17:41:05.289Z,14.33
2019-03-27T17:43:54.131Z,11.30
2019-03-27T17:46:42.802Z,14.23
2019-03-27T17:49:31.379Z,15.30
2019-03-27T17:52:20.407Z,11.33
2019-03-27T17:55:09.330Z,15.63
2019-03-27T17:57:58.435Z,15.83
2019-03-27T18:00:49.586Z,16.27
2019-03-27T18:03:38.337Z,12.60
2019-03-27T18:06:27.387Z,12.70
2019-03-27T18:09:16.278Z,15.00
2019-03-27T18:12:05.006Z,16.20
2019-03-27T18:14:34.671Z,11.17
2019-03-27T18:17:23.081Z,11.87
2019-03-27T18:20:12.317Z,11.20
2019-03-27T18:22:51.569Z,17.27
2019-03-27T18:25:39.580Z,13.47
2019-03-27T18:28:27.927Z,10.97
2019-03-27T18:31:16.758Z,15.87
2019-03-27T18:34:05.305Z,13.27
2019-03-27T18:36:53.784Z,14.33
2019-03-27T18:39:42.294Z,14.17
2019-03-27T18:42:30.522Z,18.03
2019-03-27T18:45:18.772Z,14.93
2019-03-27T18:48:08.058Z,14.93
2019-03-27T18:50:56.621Z,19.03
2019-03-27T18:53:58.525Z,13.93
2019-03-27T18:56:35.715Z,14.10
2019-03-27T18:59:24.805Z,14.83
2019-03-27T19:02:14.027Z,20.13
2019-03-27T19:05:02.860Z,19.90
2019-03-27T19:07:50.971Z,13.67
2019-03-27T19:10:39.114Z,15.90
2019-03-27T19:13:27.396Z,18.70
2019-03-27T19:16:16.097Z,20.03
2019-03-27T19:19:04.792Z,15.47
2019-03-27T19:21:53.304Z,16.73
2019-03-27T19:24:22.866Z,15.73
2019-03-27T19:27:11.343Z,15.80
2019-03-27T19:30:00.384Z,16.80
2019-03-27T19:32:48.770Z,17.70
2019-03-27T19:35:37.450Z,18.20
2019-03-27T19:38:26.672Z,15.83
2019-03-27T19:41:15.291Z,14.33
2019-03-27T19:44:03.640Z,14.43
2019-03-27T19:46:52.110Z,18.47
2019-03-27T19:49:40.819Z,19.47
2019-03-27T19:52:29.460Z,18.17
2019-03-27T19:55:18.780Z,17.60
2019-03-27T19:58:07.343Z,15.80
2019-03-27T20:00:51.173Z,15.27
2019-03-27T20:03:40.069Z,19.77
2019-03-27T20:06:28.630Z,16.30
2019-03-27T20:09:16.917Z,14.57
2019-03-27T20:12:05.530Z,16.63
2019-03-27T20:14:53.930Z,16.70
2019-03-27T20:17:42.638Z,19.00
2019-03-27T20:20:31.488Z,16.70
2019-03-27T20:23:19.425Z,17.00
2019-03-27T20:26:08.141Z,19.97
2019-03-27T20:28:57.133Z,18.83
2019-03-27T20:31:45.913Z,22.37
2019-03-27T20:34:34.536Z,20.80
2019-03-27T20:37:23.230Z,19.90
2019-03-27T20:40:11.839Z,20.10
2019-03-27T20:43:00.753Z,20.20
2019-03-27T20:45:49.684Z,20.03
2019-03-27T20:48:38.390Z,18.17
2019-03-27T20:51:17.337Z,17.20
2019-03-27T20:54:06.060Z,20.63
2019-03-27T20:56:54.907Z,18.33
2019-03-27T20:59:43.598Z,26.87
2019-03-27T21:02:32.232Z,20.07
2019-03-27T21:05:01.798Z,25.00
2019-03-27T21:07:49.995Z,19.60
2019-03-27T21:10:38.763Z,19.23
2019-03-27T21:13:28.058Z,18.43
2019-03-27T21:16:16.437Z,17.67
2019-03-27T21:19:05.117Z,18.47
2019-03-27T21:21:53.716Z,19.87
2019-03-27T21:24:42.170Z,20.83
2019-03-27T21:27:30.794Z,23.73
2019-03-27T21:30:19.555Z,23.27
2019-03-27T21:33:08.682Z,21.17
2019-03-27T21:35:57.632Z,22.33
2019-03-27T21:38:46.085Z,21.93
2019-03-27T21:41:34.885Z,23.17
2019-03-27T21:44:23.934Z,21.23
2019-03-27T21:47:12.590Z,22.27
2019-03-27T21:50:00.918Z,20.93
2019-03-27T21:52:59.927Z,18.97
2019-03-27T21:55:42.915Z,24.10
2019-03-27T21:58:29.696Z,22.50
2019-03-27T22:01:18.180Z,23.23
2019-03-27T22:04:06.965Z,21.73
2019-03-27T22:06:55.519Z,21.20
2019-03-27T22:09:43.930Z,26.23
2019-03-27T22:12:32.789Z,21.50
2019-03-27T22:15:21.726Z,21.10
2019-03-27T22:18:10.064Z,22.93
2019-03-27T22:20:58.142Z,20.80
2019-03-27T22:23:46.757Z,22.00
2019-03-27T22:26:35.083Z,23.60
2019-03-27T22:29:23.740Z,23.57
2019-03-27T22:32:12.538Z,22.87
2019-03-27T22:35:01.381Z,24.33
2019-03-27T22:37:49.584Z,22.07
2019-03-27T22:40:37.878Z,24.33
2019-03-27T22:43:26.544Z,19.63
2019-03-27T22:46:14.922Z,21.40
2019-03-27T22:49:03.573Z,24.47
2019-03-27T22:51:52.080Z,20.00
2019-03-27T22:54:40.348Z,20.50
2019-03-27T22:57:28.902Z,24.23
2019-03-27T23:00:19.467Z,22.50
2019-03-27T23:03:17.667Z,21.97
2019-03-27T23:05:57.267Z,24.73
2019-03-27T23:08:45.962Z,25.50
2019-03-27T23:11:34.880Z,22.10
2019-03-27T23:14:23.055Z,25.97
2019-03-27T23:17:11.768Z,21.50
2019-03-27T23:19:59.967Z,23.90
2019-03-27T23:22:48.914Z,26.97
2019-03-27T23:25:37.559Z,24.00
2019-03-27T23:28:26.655Z,22.37
2019-03-27T23:31:15.354Z,23.40
2019-03-27T23:34:04.013Z,21.23
2019-03-27T23:36:52.570Z,28.50
2019-03-27T23:39:40.944Z,26.90
2019-03-27T23:42:25.856Z,24.90
2019-03-27T23:45:14.892Z,20.13
2019-03-27T23:48:03.667Z,23.60
2019-03-27T23:50:52.770Z,26.40
2019-03-27T23:53:40.849Z,20.57
2019-03-27T23:56:28.971Z,22.90
2019-03-27T23:59:18.059Z,23.77
